createdAt,value
2022-09-05T00:00:14.755Z,3.42
2022-09-05T00:03:14.022Z,3.15
2022-09-05T00:06:15.297Z,3.42
2022-09-05T00:09:27.816Z,3.40
2022-09-05T00:12:17.899Z,3.88
2022-09-05T00:15:30.946Z,3.58
2022-09-05T00:21:21.408Z,3.60
2022-09-05T00:24:34.150Z,3.33
2022-09-05T00:26:30.018Z,3.50
2022-09-05T00:29:26.833Z,3.65
2022-09-05T00:32:33.576Z,3.95
2022-09-05T00:35:28.181Z,3.58
2022-09-05T00:38:32.047Z,3.25
2022-09-05T00:41:23.154Z,3.88
2022-09-05T00:44:10.329Z,3.72
2022-09-05T00:46:55.787Z,3.65
2022-09-05T00:49:48.786Z,3.30
2022-09-05T00:52:42.262Z,3.38
2022-09-05T00:55:58.823Z,3.50
2022-09-05T00:58:44.445Z,3.15
2022-09-05T01:01:33.730Z,3.53
2022-09-05T01:04:25.263Z,3.83
2022-09-05T01:07:48.374Z,2.55
2022-09-05T01:10:43.833Z,2.90
2022-09-05T01:13:56.608Z,2.60
2022-09-05T01:16:41.831Z,2.80
2022-09-05T01:20:19.477Z,3.15
2022-09-05T01:23:24.793Z,5.20
2022-09-05T01:26:37.485Z,3.20
2022-09-05T01:29:43.834Z,3.13
2022-09-05T01:32:39.215Z,3.63
2022-09-05T01:35:28.066Z,3.42
2022-09-05T01:38:46.936Z,3.00
2022-09-05T01:41:56.592Z,3.17
2022-09-05T01:44:55.245Z,3.58
2022-09-05T01:47:46.182Z,3.25
2022-09-05T01:50:49.751Z,3.00
2022-09-05T01:53:51.190Z,2.75
2022-09-05T01:57:11.412Z,2.90
2022-09-05T01:59:59.919Z,2.70
2022-09-05T02:03:27.395Z,2.88
2022-09-05T02:06:37.652Z,2.25
2022-09-05T02:09:49.519Z,3.15
2022-09-05T02:13:12.285Z,2.85
2022-09-05T02:16:19.272Z,2.90
2022-09-05T02:19:09.130Z,2.80
2022-09-05T02:22:07.329Z,2.53
2022-09-05T02:26:00.233Z,2.78
2022-09-05T02:28:15.647Z,3.00
2022-09-05T02:31:19.555Z,3.17
2022-09-05T02:34:12.317Z,3.20
2022-09-05T02:37:05.289Z,3.38
2022-09-05T02:43:30.516Z,2.83
2022-09-05T02:45:09.902Z,3.20
2022-09-05T02:46:55.735Z,2.95
2022-09-05T02:52:21.204Z,2.42
2022-09-05T02:57:27.086Z,3.05
2022-09-05T02:57:38.797Z,2.47
2022-09-05T03:00:05.414Z,2.55
2022-09-05T03:03:09.705Z,3.20
2022-09-05T03:06:42.849Z,2.80
2022-09-05T03:09:44.814Z,2.85
2022-09-05T03:12:52.326Z,2.63
2022-09-05T03:15:55.419Z,3.03
2022-09-05T03:19:05.412Z,2.70
2022-09-05T03:22:14.025Z,3.05
2022-09-05T03:25:32.607Z,3.35
2022-09-05T03:28:43.035Z,3.67
2022-09-05T03:31:56.943Z,2.92
2022-09-05T03:35:08.888Z,2.55
2022-09-05T03:38:13.158Z,2.95
2022-09-05T03:41:12.445Z,2.55
2022-09-05T03:44:10.197Z,2.92
2022-09-05T03:47:11.577Z,2.67
2022-09-05T03:54:47.335Z,2.80
2022-09-05T03:57:18.606Z,2.88
2022-09-05T03:57:41.901Z,2.63
2022-09-05T04:00:33.654Z,2.30
2022-09-05T04:08:13.520Z,2.65
2022-09-05T04:08:27.685Z,2.88
2022-09-05T04:10:23.104Z,2.33
2022-09-05T04:13:20.975Z,2.47
2022-09-05T04:16:17.250Z,2.53
2022-09-05T04:19:21.766Z,2.22
2022-09-05T04:22:29.879Z,2.70
2022-09-05T04:25:27.836Z,2.42
2022-09-05T04:28:32.437Z,2.30
2022-09-05T04:32:06.524Z,2.72
2022-09-05T04:35:15.758Z,2.28
2022-09-05T04:38:17.750Z,2.33
2022-09-05T04:41:16.535Z,2.42
2022-09-05T04:44:11.138Z,2.47
2022-09-05T04:47:29.748Z,2.47
2022-09-05T04:50:23.384Z,2.13
2022-09-05T04:53:55.887Z,2.47
2022-09-05T04:56:49.560Z,1.92
2022-09-05T05:03:29.958Z,2.03
2022-09-05T05:06:10.660Z,2.75
2022-09-05T05:06:45.067Z,2.70
2022-09-05T05:10:35.253Z,2.38
2022-09-05T05:18:01.199Z,2.40
2022-09-05T05:18:09.764Z,2.83
2022-09-05T05:20:40.626Z,2.60
2022-09-05T05:23:09.084Z,2.17
2022-09-05T05:26:00.110Z,2.45
2022-09-05T05:29:00.876Z,2.92
2022-09-05T05:32:00.599Z,3.20
2022-09-05T05:34:55.381Z,3.95
2022-09-05T05:37:43.652Z,3.20
2022-09-05T05:40:42.356Z,3.47
2022-09-05T05:43:46.452Z,3.97
2022-09-05T05:46:37.669Z,3.67
2022-09-05T05:49:32.790Z,3.50
2022-09-05T05:52:40.936Z,3.40
2022-09-05T05:56:05.808Z,3.95
2022-09-05T05:59:29.026Z,3.83
2022-09-05T06:02:33.562Z,4.22
2022-09-05T06:05:40.632Z,4.30
2022-09-05T06:12:34.416Z,3.78
2022-09-05T06:14:58.709Z,3.10
2022-09-05T06:15:40.073Z,3.25
2022-09-05T06:18:42.635Z,3.90
2022-09-05T06:22:10.060Z,4.03
2022-09-05T06:25:17.113Z,3.20
2022-09-05T06:28:18.671Z,3.75
2022-09-05T06:31:39.344Z,3.15
2022-09-05T06:35:07.088Z,3.80
2022-09-05T06:37:58.591Z,3.67
2022-09-05T06:41:02.964Z,4.20
2022-09-05T06:48:14.563Z,3.50
2022-09-05T06:51:25.219Z,4.28
2022-09-05T06:54:38.569Z,4.10
2022-09-05T06:58:06.302Z,4.22
2022-09-05T07:00:58.071Z,3.67
2022-09-05T07:05:23.329Z,3.92
2022-09-05T07:07:46.153Z,4.53
2022-09-05T07:10:38.953Z,4.50
2022-09-05T07:13:42.606Z,5.00
2022-09-05T07:16:41.955Z,5.00
2022-09-05T07:19:57.282Z,5.70
2022-09-05T07:22:57.384Z,5.10
2022-09-05T07:26:03.894Z,5.07
2022-09-05T07:28:57.485Z,5.78
2022-09-05T07:31:51.712Z,4.90
2022-09-05T07:37:28.615Z,4.80
2022-09-05T07:40:25.726Z,4.22
2022-09-05T07:43:39.457Z,4.53
2022-09-05T07:46:32.489Z,4.65
2022-09-05T07:49:23.860Z,4.18
2022-09-05T07:56:51.197Z,4.50
2022-09-05T07:57:01.960Z,5.00
2022-09-05T07:59:02.906Z,3.92
2022-09-05T08:01:58.640Z,4.10
2022-09-05T08:04:45.829Z,4.55
2022-09-05T08:07:49.439Z,4.32
2022-09-05T08:11:25.421Z,4.18
2022-09-05T08:14:43.753Z,4.47
2022-09-05T08:17:35.535Z,4.18
2022-09-05T08:20:42.596Z,4.60
2022-09-05T08:24:13.197Z,4.60
2022-09-05T08:27:44.640Z,3.75
2022-09-05T08:30:39.327Z,4.75
2022-09-05T08:33:32.533Z,4.00
2022-09-05T08:36:46.599Z,4.05
2022-09-05T08:39:34.178Z,4.07
2022-09-05T08:43:55.984Z,4.20
2022-09-05T08:46:50.014Z,4.15
2022-09-05T08:49:49.979Z,3.72
2022-09-05T08:52:51.606Z,4.05
2022-09-05T08:56:01.920Z,4.20
2022-09-05T08:59:28.291Z,4.18
2022-09-05T09:02:48.329Z,3.92
2022-09-05T09:06:15.805Z,3.50
2022-09-05T09:09:16.671Z,3.83
2022-09-05T09:12:32.622Z,4.03
2022-09-05T09:15:30.146Z,4.15
2022-09-05T09:18:18.474Z,3.63
2022-09-05T09:21:22.379Z,3.85
2022-09-05T09:24:25.245Z,3.60
2022-09-05T09:27:29.756Z,3.72
2022-09-05T09:30:26.353Z,4.15
2022-09-05T09:33:24.090Z,3.75
2022-09-05T09:36:40.483Z,4.43
2022-09-05T09:39:45.157Z,3.80
2022-09-05T09:43:21.747Z,3.88
2022-09-05T09:46:24.671Z,4.40
2022-09-05T09:49:28.631Z,4.13
2022-09-05T09:52:40.102Z,3.65
2022-09-05T09:55:59.872Z,4.75
2022-09-05T09:59:04.680Z,5.32
2022-09-05T10:03:27.006Z,4.05
2022-09-05T10:05:52.398Z,3.88
2022-09-05T10:10:44.034Z,3.85
2022-09-05T10:13:08.260Z,3.95
2022-09-05T10:16:07.486Z,3.58
2022-09-05T10:19:11.131Z,3.67
2022-09-05T10:22:36.545Z,4.53
2022-09-05T10:25:48.127Z,4.72
2022-09-05T10:28:43.104Z,4.60
2022-09-05T10:35:11.195Z,5.57
2022-09-05T10:35:18.139Z,4.72
2022-09-05T10:38:15.249Z,4.50
2022-09-05T10:41:20.790Z,4.43
2022-09-05T10:44:11.205Z,3.85
2022-09-05T10:46:59.711Z,3.47
2022-09-05T10:49:50.671Z,3.55
2022-09-05T10:52:59.388Z,3.88
2022-09-05T10:56:09.153Z,4.32
2022-09-05T11:01:31.064Z,4.20
2022-09-05T11:02:34.786Z,4.25
2022-09-05T11:05:30.832Z,3.95
2022-09-05T11:08:47.610Z,4.10
2022-09-05T11:11:46.631Z,3.78
2022-09-05T11:14:51.478Z,4.45
2022-09-05T11:17:54.291Z,3.28
2022-09-05T11:20:58.489Z,3.38
2022-09-05T11:23:57.448Z,3.05
2022-09-05T11:27:24.216Z,3.58
2022-09-05T11:30:30.424Z,3.63
2022-09-05T11:40:00.000Z,3.58
2022-09-05T11:40:00.371Z,4.75
2022-09-05T11:40:38.221Z,3.35
2022-09-05T11:43:42.854Z,3.70
2022-09-05T11:46:40.952Z,3.50
2022-09-05T11:49:44.170Z,3.55
2022-09-05T11:53:06.716Z,3.88
2022-09-05T11:56:15.015Z,3.22
2022-09-05T11:59:33.488Z,3.10
2022-09-05T12:02:53.575Z,3.17
2022-09-05T12:05:58.806Z,2.78
2022-09-05T12:08:57.104Z,2.67
2022-09-05T12:12:26.685Z,2.50
2022-09-05T12:15:34.611Z,2.47
2022-09-05T12:18:24.201Z,2.65
2022-09-05T12:21:31.559Z,2.30
2022-09-05T12:25:23.782Z,2.63
2022-09-05T12:27:47.504Z,3.20
2022-09-05T12:31:09.942Z,2.88
2022-09-05T12:36:05.371Z,2.80
2022-09-05T12:40:18.406Z,2.55
2022-09-05T12:41:36.065Z,2.30
2022-09-05T12:44:07.937Z,2.15
2022-09-05T12:46:45.760Z,2.05
2022-09-05T12:50:14.951Z,2.60
2022-09-05T12:53:07.670Z,2.00
2022-09-05T12:56:33.638Z,2.10
2022-09-05T13:03:01.615Z,2.15
2022-09-05T13:03:14.057Z,2.13
2022-09-05T13:05:58.824Z,2.05
2022-09-05T13:08:59.738Z,2.75
2022-09-05T13:14:53.866Z,2.40
2022-09-05T13:15:27.160Z,2.47
2022-09-05T13:18:17.086Z,2.58
2022-09-05T13:21:08.852Z,2.40
2022-09-05T13:27:20.450Z,2.10
2022-09-05T13:33:01.936Z,2.33
2022-09-05T13:38:02.272Z,2.67
2022-09-05T13:38:20.929Z,2.67
2022-09-05T13:39:59.522Z,2.15
2022-09-05T13:43:11.374Z,3.35
2022-09-05T13:46:25.983Z,2.22
2022-09-05T13:49:25.162Z,2.05
2022-09-05T13:52:37.814Z,2.08
2022-09-05T13:55:46.195Z,2.42
2022-09-05T13:58:56.827Z,2.10
2022-09-05T14:01:57.064Z,2.22
2022-09-05T14:05:06.509Z,2.42
2022-09-05T14:08:24.459Z,2.25
2022-09-05T14:11:32.667Z,1.88
2022-09-05T14:18:21.498Z,2.10
2022-09-05T14:21:15.871Z,2.55
2022-09-05T14:24:14.668Z,1.60
2022-09-05T14:27:00.487Z,2.08
2022-09-05T14:29:52.237Z,1.83
2022-09-05T14:37:50.673Z,2.25
2022-09-05T14:39:42.410Z,1.67
2022-09-05T14:42:50.737Z,2.22
2022-09-05T14:46:04.772Z,1.73
2022-09-05T14:49:18.270Z,1.80
2022-09-05T14:52:28.926Z,2.15
2022-09-05T15:02:41.493Z,1.90
2022-09-05T15:02:48.567Z,2.00
2022-09-05T15:07:25.783Z,1.98
2022-09-05T15:12:14.821Z,1.83
2022-09-05T15:13:30.331Z,1.50
2022-09-05T15:16:17.761Z,2.03
2022-09-05T15:19:03.487Z,1.75
2022-09-05T15:21:49.010Z,1.50
2022-09-05T15:24:34.415Z,2.13
2022-09-05T15:27:28.749Z,1.80
2022-09-05T15:30:17.756Z,1.95
2022-09-05T15:33:25.849Z,1.55
2022-09-05T15:36:17.409Z,1.58
2022-09-05T15:39:35.860Z,1.48
2022-09-05T15:42:23.890Z,2.42
2022-09-05T15:45:17.943Z,1.63
2022-09-05T15:48:25.291Z,1.95
2022-09-05T15:51:19.366Z,1.40
2022-09-05T15:54:05.318Z,1.50
2022-09-05T15:56:59.540Z,1.92
2022-09-05T15:59:48.989Z,2.00
2022-09-05T16:02:49.930Z,2.60
2022-09-05T16:10:35.229Z,2.05
2022-09-05T16:10:39.696Z,2.30
2022-09-05T16:12:51.608Z,1.73
2022-09-05T16:22:11.272Z,1.80
2022-09-05T16:23:27.194Z,2.10
2022-09-05T16:23:30.906Z,1.58
2022-09-05T16:25:23.846Z,1.35
2022-09-05T16:28:34.714Z,1.77
2022-09-05T16:31:28.901Z,2.05
2022-09-05T16:34:45.377Z,2.10
2022-09-05T16:37:49.655Z,2.35
2022-09-05T16:40:41.454Z,2.72
2022-09-05T16:43:32.689Z,2.95
2022-09-05T16:46:27.666Z,2.53
2022-09-05T16:49:41.879Z,2.58
2022-09-05T16:52:37.835Z,2.30
2022-09-05T16:55:37.828Z,2.90
2022-09-05T16:58:33.318Z,2.45
2022-09-05T17:01:40.294Z,2.67
2022-09-05T17:04:28.689Z,3.10
2022-09-05T17:07:33.094Z,2.75
2022-09-05T17:10:21.733Z,2.72
2022-09-05T17:13:16.779Z,3.15
2022-09-05T17:16:03.985Z,2.70
2022-09-05T17:18:52.755Z,2.63
2022-09-05T17:22:47.528Z,2.30
2022-09-05T17:29:30.254Z,3.17
2022-09-05T17:29:32.180Z,2.80
2022-09-05T17:34:15.218Z,2.72
2022-09-05T17:37:12.689Z,3.35
2022-09-05T17:40:42.777Z,2.95
2022-09-05T17:43:38.631Z,2.88
2022-09-05T17:46:29.079Z,2.78
2022-09-05T17:49:40.406Z,2.50
2022-09-05T17:52:26.063Z,2.83
2022-09-05T17:55:13.657Z,3.05
2022-09-05T17:58:19.561Z,2.75
2022-09-05T18:01:18.131Z,2.90
2022-09-05T18:04:17.358Z,2.35
2022-09-05T18:07:27.158Z,2.47
2022-09-05T18:10:27.833Z,2.40
2022-09-05T18:13:32.353Z,2.92
2022-09-05T18:16:39.956Z,2.92
2022-09-05T18:19:46.301Z,2.60
2022-09-05T18:22:47.515Z,2.72
2022-09-05T18:26:16.055Z,2.58
2022-09-05T18:29:06.183Z,2.60
2022-09-05T18:31:52.079Z,2.40
2022-09-05T18:34:37.789Z,3.38
2022-09-05T18:37:49.118Z,2.63
2022-09-05T18:41:06.144Z,2.78
2022-09-05T18:44:12.924Z,3.33
2022-09-05T18:47:04.901Z,2.90
2022-09-05T18:50:25.669Z,2.80
2022-09-05T18:53:12.986Z,3.72
2022-09-05T18:56:42.450Z,3.65
2022-09-05T19:02:59.083Z,2.83
2022-09-05T19:05:55.134Z,2.40
2022-09-05T19:08:48.933Z,3.15
2022-09-05T19:11:53.495Z,2.50
2022-09-05T19:15:13.281Z,3.28
2022-09-05T19:18:26.251Z,3.25
2022-09-05T19:21:19.034Z,4.53
2022-09-05T19:24:09.889Z,5.78
2022-09-05T19:27:57.407Z,4.60
2022-09-05T19:36:46.814Z,6.97
2022-09-05T19:36:50.138Z,7.72
2022-09-05T19:37:08.358Z,5.18
2022-09-05T19:42:39.999Z,3.97
2022-09-05T19:47:38.380Z,4.28
2022-09-05T19:47:39.632Z,4.28
2022-09-05T19:49:23.044Z,3.67
2022-09-05T19:52:18.930Z,3.95
2022-09-05T19:55:28.196Z,3.95
2022-09-05T19:58:21.144Z,3.58
2022-09-05T20:01:09.663Z,3.08
2022-09-05T20:03:56.001Z,2.92
2022-09-05T20:06:42.912Z,2.88
2022-09-05T20:09:28.664Z,2.90
2022-09-05T20:12:24.518Z,3.28
2022-09-05T20:15:35.915Z,3.40
2022-09-05T20:18:34.202Z,3.08
2022-09-05T20:21:32.851Z,2.97
2022-09-05T20:24:20.025Z,2.95
2022-09-05T20:27:06.074Z,2.25
2022-09-05T20:29:56.869Z,2.28
2022-09-05T20:32:52.317Z,2.45
2022-09-05T20:38:26.370Z,2.47
2022-09-05T20:43:22.630Z,2.45
2022-09-05T20:43:30.344Z,2.50
2022-09-05T20:45:07.155Z,2.63
2022-09-05T20:52:50.419Z,2.90
2022-09-05T20:54:22.764Z,2.60
2022-09-05T20:54:32.075Z,2.78
2022-09-05T20:57:18.343Z,2.60
2022-09-05T21:00:16.936Z,2.20
2022-09-05T21:03:02.567Z,2.40
2022-09-05T21:05:50.633Z,1.92
2022-09-05T21:08:36.557Z,1.95
2022-09-05T21:11:30.994Z,2.58
2022-09-05T21:14:21.859Z,3.85
2022-09-05T21:17:15.439Z,2.70
2022-09-05T21:20:08.438Z,3.10
2022-09-05T21:22:53.757Z,3.35
2022-09-05T21:25:51.677Z,2.70
2022-09-05T21:28:39.574Z,2.67
2022-09-05T21:31:27.071Z,2.85
2022-09-05T21:34:25.411Z,2.70
2022-09-05T21:37:13.225Z,2.42
2022-09-05T21:40:01.167Z,2.30
2022-09-05T21:46:45.569Z,3.00
2022-09-05T21:47:49.927Z,3.03
2022-09-05T21:49:00.744Z,2.35
2022-09-05T21:51:51.010Z,2.13
2022-09-05T21:59:16.978Z,2.05
2022-09-05T21:59:28.368Z,2.08
2022-09-05T22:00:53.331Z,2.63
2022-09-05T22:03:39.206Z,1.88
2022-09-05T22:06:27.734Z,2.10
2022-09-05T22:09:14.420Z,2.50
2022-09-05T22:12:00.375Z,2.42
2022-09-05T22:15:26.840Z,2.25
2022-09-05T22:18:17.021Z,2.70
2022-09-05T22:21:34.110Z,2.20
2022-09-05T22:24:21.578Z,2.30
2022-09-05T22:27:12.702Z,2.22
2022-09-05T22:29:59.071Z,2.60
2022-09-05T22:32:44.386Z,2.45
2022-09-05T22:35:29.848Z,2.35
2022-09-05T22:38:19.786Z,2.22
2022-09-05T22:41:06.203Z,2.25
2022-09-05T22:43:51.617Z,2.17
2022-09-05T22:46:37.143Z,1.90
2022-09-05T22:49:22.323Z,1.95
2022-09-05T22:52:09.640Z,2.20
2022-09-05T22:54:55.353Z,2.08
2022-09-05T22:57:41.667Z,3.38
2022-09-05T23:00:27.297Z,2.05
2022-09-05T23:03:12.522Z,2.47
2022-09-05T23:06:06.075Z,2.40
2022-09-05T23:08:51.685Z,1.92
2022-09-05T23:11:37.125Z,2.50
2022-09-05T23:14:22.445Z,2.20
2022-09-05T23:17:07.790Z,2.35
2022-09-05T23:19:53.714Z,2.17
2022-09-05T23:22:39.951Z,1.67
2022-09-05T23:25:25.779Z,2.08
2022-09-05T23:28:11.155Z,2.42
2022-09-05T23:31:01.113Z,1.85
2022-09-05T23:33:46.598Z,2.45
2022-09-05T23:36:32.105Z,2.00
2022-09-05T23:39:17.550Z,1.98
2022-09-05T23:42:03.297Z,2.15
2022-09-05T23:44:48.883Z,1.90
2022-09-05T23:47:37.803Z,2.28
2022-09-05T23:50:23.997Z,1.73
2022-09-05T23:53:09.376Z,1.80
2022-09-05T23:55:59.579Z,2.30
2022-09-05T23:58:45.680Z,2.10
